Loodiep — A8ZO7 — position and weather

sailwx.info

Track history (hours):
 
Tides and Currents Weather Stations Pressure Air Temp Water Temp Dewpoint Dewpoint Depression Visibility Wind Speed Wind Dir Waves Ship Positions

Loodiep

Last reported at 2015-May-27 07:27 UTC. Time now 2015-May-27 15:59 UTC.
Position N 36°40' E 000°47'.

Length 108 m; draft 6.1 m.

Type: Cargo ship. MMSI: 636015263.

Date/timePositionNaut miles runAvg speedWind from/ knotsBaromVisibWave heightAir tempDewpointWater temp
2015-May-27 07:27N 36°40' E 000°47'910.5
2015-May-27 06:33N 36°38' E 000°36'1110.6
2015-May-27 05:33N 36°33' E 000°24'5410.2
2015-May-27 00:17N 36°10' W 000°37'7 9.8
2015-May-26 23:33N 36°08' W 000°45'  
2015-May-24 19:17N 35°55' W 005°09'811.1
2015-May-24 18:33N 35°57' W 005°19'178 9.3
2015-May-23 23:32N 36°29' W 008°56'37 9.2
2015-May-23 19:33N 36°50' W 009°33'10 9.8
2015-May-23 18:31N 36°60' W 009°37'9 9.9
2015-May-23 17:33N 37°09' W 009°39'10 9.9
2015-May-23 16:33N 37°19' W 009°42'10 9.9
2015-May-23 15:33N 37°28' W 009°45'10 9.9
2015-May-23 14:33N 37°38' W 009°48'1010.1
2015-May-23 13:33N 37°48' W 009°51'1110.5
2015-May-23 12:33N 37°58' W 009°54'1010.3
2015-May-23 11:33N 38°08' W 009°57'1010.3
2015-May-23 10:33N 38°18' W 009°59'1010.0
2015-May-23 09:33N 38°28' W 010°03'1010.1
2015-May-23 08:33N 38°38' W 010°06'1010.0
2015-May-23 07:32N 38°48' W 010°07'21 9.8
2015-May-23 05:26N 39°08' W 010°06'910.0
2015-May-23 04:33N 39°17' W 010°06'1110.2
2015-May-23 03:29N 39°28' W 010°06'1010.2
2015-May-23 02:33N 39°37' W 010°07'10 9.9
2015-May-23 01:33N 39°47' W 010°07'10 9.7
2015-May-23 00:33N 39°57' W 010°07'1010.0
2015-May-22 23:33N 40°07' W 010°07'  
2015-May-19 09:28N 50°32' E 000°06'4 4.5
2015-May-19 08:33N 50°33' E 000°12'6 5.6
2015-May-19 07:33N 50°35' E 000°21'7 7.2
2015-May-19 06:33N 50°37' E 000°31'8 7.9
2015-May-19 05:33N 50°41' E 000°42'9 8.7
2015-May-19 04:33N 50°46' E 000°54'10 8.1
2015-May-19 03:18N 50°52' E 001°06'6 7.3
2015-May-19 02:32N 50°56' E 001°13'6 6.3
2015-May-19 01:33N 50°60' E 001°20'5 5.0
2015-May-19 00:33N 51°03' E 001°26'5 5.3
2015-May-18 23:33N 51°07' E 001°33'6 5.9
2015-May-18 22:34N 51°10' E 001°40'9 8.7
2015-May-18 21:34N 51°17' E 001°49'1111.4
2015-May-18 20:33N 51°26' E 001°59'1211.8
2015-May-18 19:33N 51°35' E 002°12'144 7.8
2015-May-18 01:09N 53°28' E 004°38'610.5
2015-May-18 00:33N 53°31' E 004°48'1110.6
2015-May-17 23:33N 53°34' E 005°05'1010.2
2015-May-17 22:33N 53°37' E 005°21'10 9.1
2015-May-17 21:30N 53°41' E 005°36'8 8.6
2015-May-17 20:33N 53°43' E 005°49'8 8.0
2015-May-17 19:33N 53°45' E 006°02'42 8.3
2015-May-17 14:33N 53°57' E 007°10'9 9.4
2015-May-17 13:33N 53°59' E 007°25'9 9.5
2015-May-17 12:33N 54°02' E 007°41'9 9.5
2015-May-17 11:33N 54°02' E 007°57'9 9.0
2015-May-17 10:33N 54°00' E 008°12'8 7.7
2015-May-17 09:33N 53°59' E 008°25'7 7.3
2015-May-17 08:33N 53°58' E 008°37'8 7.6
2015-May-17 07:33N 53°52' E 008°45'  
Track history (hours):
 
Tides and Currents Weather Stations Pressure Air Temp Water Temp Dewpoint Dewpoint Depression Visibility Wind Speed Wind Dir Waves Ship Positions

Loodiep

Last reported at 2015-May-27 07:27 UTC. Time now 2015-May-27 15:59 UTC.
Position N 36°40' E 000°47'.

Length 108 m; draft 6.1 m.

Type: Cargo ship. MMSI: 636015263.

Date/timePositionNaut miles runAvg speedWind from/ knotsBaromVisibWave heightAir tempDewpointWater temp
2015-May-27 07:27N 36°40' E 000°47'910.5
2015-May-27 06:33N 36°38' E 000°36'1110.6
2015-May-27 05:33N 36°33' E 000°24'5410.2
2015-May-27 00:17N 36°10' W 000°37'7 9.8
2015-May-26 23:33N 36°08' W 000°45'  
2015-May-24 19:17N 35°55' W 005°09'811.1
2015-May-24 18:33N 35°57' W 005°19'178 9.3
2015-May-23 23:32N 36°29' W 008°56'37 9.2
2015-May-23 19:33N 36°50' W 009°33'10 9.8
2015-May-23 18:31N 36°60' W 009°37'9 9.9
2015-May-23 17:33N 37°09' W 009°39'10 9.9
2015-May-23 16:33N 37°19' W 009°42'10 9.9
2015-May-23 15:33N 37°28' W 009°45'10 9.9
2015-May-23 14:33N 37°38' W 009°48'1010.1
2015-May-23 13:33N 37°48' W 009°51'1110.5
2015-May-23 12:33N 37°58' W 009°54'1010.3
2015-May-23 11:33N 38°08' W 009°57'1010.3
2015-May-23 10:33N 38°18' W 009°59'1010.0
2015-May-23 09:33N 38°28' W 010°03'1010.1
2015-May-23 08:33N 38°38' W 010°06'1010.0
2015-May-23 07:32N 38°48' W 010°07'21 9.8
2015-May-23 05:26N 39°08' W 010°06'910.0
2015-May-23 04:33N 39°17' W 010°06'1110.2
2015-May-23 03:29N 39°28' W 010°06'1010.2
2015-May-23 02:33N 39°37' W 010°07'10 9.9
2015-May-23 01:33N 39°47' W 010°07'10 9.7
2015-May-23 00:33N 39°57' W 010°07'1010.0
2015-May-22 23:33N 40°07' W 010°07'  
2015-May-19 09:28N 50°32' E 000°06'4 4.5
2015-May-19 08:33N 50°33' E 000°12'6 5.6
2015-May-19 07:33N 50°35' E 000°21'7 7.2
2015-May-19 06:33N 50°37' E 000°31'8 7.9
2015-May-19 05:33N 50°41' E 000°42'9 8.7
2015-May-19 04:33N 50°46' E 000°54'10 8.1
2015-May-19 03:18N 50°52' E 001°06'6 7.3
2015-May-19 02:32N 50°56' E 001°13'6 6.3
2015-May-19 01:33N 50°60' E 001°20'5 5.0
2015-May-19 00:33N 51°03' E 001°26'5 5.3
2015-May-18 23:33N 51°07' E 001°33'6 5.9
2015-May-18 22:34N 51°10' E 001°40'9 8.7
2015-May-18 21:34N 51°17' E 001°49'1111.4
2015-May-18 20:33N 51°26' E 001°59'1211.8
2015-May-18 19:33N 51°35' E 002°12'144 7.8
2015-May-18 01:09N 53°28' E 004°38'610.5
2015-May-18 00:33N 53°31' E 004°48'1110.6
2015-May-17 23:33N 53°34' E 005°05'1010.2
2015-May-17 22:33N 53°37' E 005°21'10 9.1
2015-May-17 21:30N 53°41' E 005°36'8 8.6
2015-May-17 20:33N 53°43' E 005°49'8 8.0
2015-May-17 19:33N 53°45' E 006°02'42 8.3
2015-May-17 14:33N 53°57' E 007°10'9 9.4
2015-May-17 13:33N 53°59' E 007°25'9 9.5
2015-May-17 12:33N 54°02' E 007°41'9 9.5
2015-May-17 11:33N 54°02' E 007°57'9 9.0
2015-May-17 10:33N 54°00' E 008°12'8 7.7
2015-May-17 09:33N 53°59' E 008°25'7 7.3
2015-May-17 08:33N 53°58' E 008°37'8 7.6
2015-May-17 07:33N 53°52' E 008°45'  

Dump ship's entire track history